Time;durP1;ratioP1;P1;durP2;ratioP2;P2;SDS_P1;SDS_P2;PMS_P1;PMS_P2;Temp;Humidity;BMP_temperature;BMP_pressure;BME280_temperature;BME280_humidity;BME280_pressure;Samples;Min_cycle;Max_cycle;Signal;HPM_P1;HPM_P2
2021/01/09 00:00:26;;;;;;;54.25;11.85;;;;;;;-0.23;95.13;100734.13;5031119;28;142121;-78
2021/01/09 00:02:52;;;;;;;47.17;14.05;;;;;;;-0.23;94.57;100733.28;5053186;28;28121;-76
2021/01/09 00:05:19;;;;;;;32.67;13.65;;;;;;;-0.25;94.88;100727.13;5054988;28;20057;-78
2021/01/09 00:07:45;;;;;;;32.58;14.00;;;;;;;-0.18;95.09;100736.69;5054733;28;20053;-77
2021/01/09 00:10:11;;;;;;;49.80;13.43;;;;;;;-0.23;95.00;100743.75;5054846;28;20045;-79
2021/01/09 00:12:39;;;;;;;44.92;12.13;;;;;;;-0.28;95.02;100738.53;5053534;28;20115;-77
2021/01/09 00:15:08;;;;;;;47.08;13.80;;;;;;;-0.45;94.43;100707.16;5057914;28;20056;-78
2021/01/09 00:17:35;;;;;;;33.03;11.25;;;;;;;-0.27;94.93;100753.41;5058854;28;20126;-78
2021/01/09 00:20:07;;;;;;;24.67;12.07;;;;;;;-0.20;94.09;100756.84;5058976;28;20049;-77
2021/01/09 00:22:34;;;;;;;22.67;11.63;;;;;;;-0.22;94.29;100759.47;5058744;28;20056;-77
2021/01/09 00:25:02;;;;;;;20.33;11.20;;;;;;;-0.35;93.94;100740.31;5058894;28;20056;-77
2021/01/09 00:27:28;;;;;;;20.23;13.32;;;;;;;-0.26;94.40;100768.25;5057481;28;20056;-76
2021/01/09 00:29:54;;;;;;;20.42;12.50;;;;;;;-0.26;94.16;100767.38;5058248;28;20053;-77
2021/01/09 00:32:20;;;;;;;20.95;11.98;;;;;;;-0.25;94.27;100767.38;5057483;28;20449;-76
2021/01/09 00:34:46;;;;;;;22.40;11.63;;;;;;;-0.20;94.62;100764.72;5058456;28;20065;-77
2021/01/09 00:37:13;;;;;;;18.95;12.38;;;;;;;-0.16;93.79;100764.69;5041098;28;20103;-77
2021/01/09 00:39:39;;;;;;;15.15;10.32;;;;;;;-0.22;93.51;100754.22;5057623;28;20053;-78
2021/01/09 00:42:05;;;;;;;17.65;10.82;;;;;;;-0.16;93.98;100763.81;5058801;28;20060;-76
2021/01/09 00:44:31;;;;;;;16.73;10.95;;;;;;;-0.22;93.60;100769.09;5058581;28;20059;-77
2021/01/09 00:46:58;;;;;;;19.88;12.25;;;;;;;-0.24;94.02;100766.50;5058415;28;20450;-78
2021/01/09 00:49:26;;;;;;;18.33;11.43;;;;;;;-0.30;94.45;100762.16;5058439;28;20084;-78
2021/01/09 00:51:52;;;;;;;17.98;11.55;;;;;;;-0.25;93.66;100766.50;5057470;28;20049;-77
2021/01/09 00:54:18;;;;;;;20.27;12.25;;;;;;;-0.26;93.77;100770.88;5057215;28;20079;-78
2021/01/09 00:56:44;;;;;;;20.25;12.38;;;;;;;-0.24;94.22;100773.47;5058128;28;20354;-78
2021/01/09 00:59:10;;;;;;;21.05;12.05;;;;;;;-0.23;93.94;100778.72;5058073;28;20056;-76
2021/01/09 01:01:38;;;;;;;18.45;11.93;;;;;;;-0.29;93.52;100787.50;5057930;28;20122;-77
2021/01/09 01:04:04;;;;;;;20.50;12.10;;;;;;;-0.30;93.88;100771.78;5058025;28;20137;-77
2021/01/09 01:06:30;;;;;;;18.50;12.38;;;;;;;-0.26;94.27;100781.38;5057825;28;20057;-77
2021/01/09 01:08:57;;;;;;;19.08;12.00;;;;;;;-0.24;93.69;100784.84;5057820;28;20053;-78
2021/01/09 01:11:26;;;;;;;16.35;11.43;;;;;;;-0.29;93.94;100769.16;5056613;28;20045;-77
2021/01/09 01:13:54;;;;;;;18.77;11.95;;;;;;;-0.30;93.92;100770.03;5057752;28;20072;-77
2021/01/09 01:16:21;;;;;;;21.85;12.80;;;;;;;-0.19;93.74;100788.31;5057862;28;20063;-76
2021/01/09 01:18:47;;;;;;;23.23;13.90;;;;;;;-0.24;93.93;100787.47;5057881;28;20123;-78
2021/01/09 01:21:13;;;;;;;20.42;12.10;;;;;;;-0.24;93.97;100792.72;5057467;28;20114;-76
2021/01/09 01:23:40;;;;;;;20.27;12.38;;;;;;;-0.18;94.43;100804.91;5057374;28;20045;-76
2021/01/09 01:26:10;;;;;;;19.02;12.05;;;;;;;-0.11;94.10;100808.41;5057723;28;20060;-75
2021/01/09 01:28:38;;;;;;;19.80;12.60;;;;;;;-0.19;94.19;100806.69;5057611;28;20056;-76
2021/01/09 01:31:05;;;;;;;20.90;13.00;;;;;;;-0.20;94.04;100804.94;5057432;28;20064;-77
2021/01/09 01:33:32;;;;;;;23.50;14.05;;;;;;;-0.22;93.71;100804.06;5057417;28;20067;-76
2021/01/09 01:35:58;;;;;;;21.67;13.48;;;;;;;-0.11;93.62;100816.25;5057435;28;20056;-77
2021/01/09 01:38:25;;;;;;;20.35;13.00;;;;;;;-0.07;93.23;100817.97;5057221;28;20510;-75
2021/01/09 01:41:06;;;;;;;22.33;13.63;;;;;;;-0.24;93.27;100824.19;5056155;28;20056;-75
2021/01/09 01:43:33;;;;;;;23.67;14.40;;;;;;;-0.17;94.27;100827.66;5057420;28;20107;-77
2021/01/09 01:46:01;;;;;;;31.85;16.80;;;;;;;-0.24;93.76;100823.31;5056075;28;20061;-78
2021/01/09 01:48:28;;;;;;;29.27;16.15;;;;;;;-0.30;94.48;100830.38;5056151;28;20067;-77
2021/01/09 01:50:55;;;;;;;32.20;16.77;;;;;;;-0.36;95.20;100809.41;5056778;28;20049;-76
2021/01/09 01:53:22;;;;;;;28.73;16.92;;;;;;;-0.32;94.64;100815.50;5057217;28;20060;-76
2021/01/09 01:55:50;;;;;;;30.73;17.10;;;;;;;-0.33;94.23;100819.03;5055741;28;20049;-77
2021/01/09 01:58:16;;;;;;;27.20;15.93;;;;;;;-0.26;94.51;100825.09;5057430;28;20048;-78
2021/01/09 02:00:46;;;;;;;32.33;17.42;;;;;;;-0.15;95.09;100839.88;5055642;28;20057;-75
2021/01/09 02:03:16;;;;;;;34.60;17.38;;;;;;;-0.10;94.44;100836.38;5056872;28;20075;-76
2021/01/09 02:05:52;;;;;;;32.72;17.77;;;;;;;-0.11;94.53;100829.38;5055513;28;20102;-78
2021/01/09 02:08:22;;;;;;;32.70;17.75;;;;;;;-0.14;95.12;100827.66;5056999;28;20048;-76
2021/01/09 02:10:54;;;;;;;31.60;18.95;;;;;;;-0.17;94.32;100820.66;5056588;28;20049;-76
2021/01/09 02:13:33;;;;;;;29.75;17.48;;;;;;;-0.12;94.55;100819.78;5056546;28;20148;-77
2021/01/09 02:16:00;;;;;;;29.05;16.48;;;;;;;-0.16;94.48;100826.78;5056398;28;20053;-76
2021/01/09 02:18:27;;;;;;;30.65;17.17;;;;;;;-0.15;94.81;100831.16;5056482;28;20139;-77
2021/01/09 02:21:04;;;;;;;30.77;17.63;;;;;;;-0.13;94.71;100831.16;5056460;28;20132;-77
2021/01/09 02:23:32;;;;;;;28.35;16.70;;;;;;;-0.12;94.39;100825.88;5056425;28;20055;-75
2021/01/09 02:25:59;;;;;;;28.27;16.88;;;;;;;-0.06;93.83;100830.25;5039166;28;20068;-76
2021/01/09 02:28:25;;;;;;;27.52;16.30;;;;;;;-0.12;94.23;100806.66;5056287;28;20447;-76
2021/01/09 02:30:52;;;;;;;30.08;17.83;;;;;;;-0.13;93.94;100821.50;5056061;28;20096;-77
2021/01/09 02:33:20;;;;;;;28.95;18.08;;;;;;;-0.10;94.13;100824.13;5056237;28;20049;-77
2021/01/09 02:35:47;;;;;;;28.02;17.50;;;;;;;-0.04;93.63;100815.34;5055693;28;20052;-76
2021/01/09 02:38:14;;;;;;;28.35;17.80;;;;;;;-0.07;94.20;100828.47;5056216;28;20110;-76
2021/01/09 02:40:41;;;;;;;28.33;17.63;;;;;;;-0.06;94.58;100825.00;5056191;28;20049;-75
2021/01/09 02:43:14;;;;;;;31.25;18.58;;;;;;;-0.14;93.85;100814.53;5055215;28;20434;-75
2021/01/09 02:45:40;;;;;;;32.92;18.95;;;;;;;-0.11;94.14;100825.00;5055840;28;20048;-78
2021/01/09 02:48:07;;;;;;;32.65;18.60;;;;;;;-0.16;93.94;100819.78;5056119;28;20363;-77
2021/01/09 02:50:34;;;;;;;33.92;19.23;;;;;;;-0.08;94.36;100830.25;5055999;28;20045;-76
2021/01/09 02:53:01;;;;;;;36.03;20.23;;;;;;;-0.11;94.29;100830.25;5055368;28;20056;-77
2021/01/09 02:55:27;;;;;;;38.67;21.20;;;;;;;-0.12;94.26;100827.66;5054607;28;20132;-75
2021/01/09 02:57:53;;;;;;;36.13;20.27;;;;;;;-0.04;94.40;100833.72;5054709;28;20060;-77
2021/01/09 03:00:20;;;;;;;37.20;20.70;;;;;;;-0.17;94.54;100825.03;5055096;28;20454;-76
2021/01/09 03:02:46;;;;;;;42.70;20.05;;;;;;;-0.03;94.01;100838.06;5055900;28;20107;-76
2021/01/09 03:05:12;;;;;;;38.45;21.13;;;;;;;-0.05;94.69;100845.09;5054640;28;20049;-76
2021/01/09 03:07:39;;;;;;;38.28;20.80;;;;;;;-0.04;94.12;100852.09;5055881;28;20064;-77
2021/01/09 03:10:06;;;;;;;39.97;22.38;;;;;;;-0.07;94.19;100836.34;5054267;28;20048;-77
2021/01/09 03:12:32;;;;;;;42.55;22.00;;;;;;;-0.01;94.85;100849.44;5055720;28;20044;-76
2021/01/09 03:14:58;;;;;;;45.28;23.80;;;;;;;-0.01;94.57;100854.69;5054342;28;20099;-76
2021/01/09 03:17:25;;;;;;;39.75;22.17;;;;;;;0.04;94.70;100862.56;5037840;28;20114;-76
2021/01/09 03:19:51;;;;;;;39.10;21.98;;;;;;;0.11;94.34;100851.97;5054444;28;20057;-78
2021/01/09 03:22:18;;;;;;;37.35;21.13;;;;;;;0.05;93.77;100846.78;5055255;28;20048;-76
2021/01/09 03:24:44;;;;;;;47.50;23.92;;;;;;;0.06;94.39;100858.16;5054116;28;20111;-78
2021/01/09 03:27:10;;;;;;;46.33;24.15;;;;;;;0.10;94.07;100863.38;5054194;28;20055;-78
2021/01/09 03:29:36;;;;;;;49.95;24.00;;;;;;;-0.11;94.84;100839.88;5055263;28;20136;-79
2021/01/09 03:32:03;;;;;;;48.60;22.67;;;;;;;0.01;94.53;100852.06;5055219;28;20384;-76
2021/01/09 03:34:29;;;;;;;50.58;23.98;;;;;;;-0.02;94.81;100860.81;5054160;28;20057;-77
2021/01/09 03:36:55;;;;;;;48.40;23.00;;;;;;;0.02;94.38;100859.03;5054099;28;20474;-78
2021/01/09 03:39:22;;;;;;;44.40;23.27;;;;;;;0.04;94.32;100845.03;5055352;28;20049;-78
2021/01/09 03:41:48;;;;;;;47.45;23.23;;;;;;;0.03;94.00;100859.03;5053999;28;20099;-78
2021/01/09 03:44:14;;;;;;;50.70;24.98;;;;;;;0.05;94.61;100861.66;5054386;28;20056;-75
2021/01/09 03:46:40;;;;;;;47.55;24.42;;;;;;;0.01;94.25;100855.56;5055227;28;20053;-77
2021/01/09 03:49:07;;;;;;;49.10;25.55;;;;;;;0.11;93.91;100861.63;5053844;28;20497;-76
2021/01/09 03:51:33;;;;;;;51.28;24.05;;;;;;;0.03;94.47;100855.53;5054756;28;20044;-77
2021/01/09 03:53:59;;;;;;;53.63;26.10;;;;;;;0.09;94.53;100861.63;5054962;28;20457;-75
2021/01/09 03:56:25;;;;;;;46.28;25.25;;;;;;;0.15;94.68;100863.34;5054978;28;20049;-78
2021/01/09 03:58:52;;;;;;;50.08;26.45;;;;;;;0.18;94.73;100863.31;5053793;28;20489;-76
2021/01/09 04:01:18;;;;;;;46.75;24.48;;;;;;;0.20;94.61;100865.91;5054648;28;20052;-77
2021/01/09 04:03:44;;;;;;;52.22;25.70;;;;;;;0.19;94.90;100865.06;5055037;28;20049;-76
2021/01/09 04:06:10;;;;;;;49.67;24.55;;;;;;;0.26;94.51;100866.78;5054637;28;20445;-77
2021/01/09 04:08:36;;;;;;;51.72;26.13;;;;;;;0.12;94.31;100850.25;5054645;28;20063;-77
2021/01/09 04:11:02;;;;;;;57.13;27.20;;;;;;;0.20;94.27;100871.16;5054464;28;20338;-76
2021/01/09 04:13:29;;;;;;;57.42;27.40;;;;;;;0.26;94.62;100860.63;5054658;28;20102;-78
2021/01/09 04:15:55;;;;;;;51.83;25.58;;;;;;;0.31;94.17;100861.47;5054676;28;20056;-77
2021/01/09 04:18:21;;;;;;;55.30;27.25;;;;;;;0.24;94.62;100839.66;5054660;28;20076;-77
2021/01/09 04:20:47;;;;;;;54.22;26.27;;;;;;;0.26;94.45;100858.00;5054871;28;20061;-78
2021/01/09 04:23:13;;;;;;;53.13;27.20;;;;;;;0.23;93.62;100844.91;5054410;28;20079;-76
2021/01/09 04:25:40;;;;;;;48.20;25.27;;;;;;;0.26;93.70;100837.00;5054673;28;20081;-76
2021/01/09 04:28:06;;;;;;;49.33;24.48;;;;;;;0.32;93.86;100844.84;5054507;28;20057;-77
2021/01/09 04:30:32;;;;;;;51.80;25.17;;;;;;;0.23;93.91;100853.66;5053362;28;20057;-77
2021/01/09 04:32:59;;;;;;;51.78;26.00;;;;;;;0.18;94.19;100854.56;5054616;28;20382;-77
2021/01/09 04:35:25;;;;;;;57.80;25.55;;;;;;;0.18;94.42;100851.94;5054555;28;20052;-76
2021/01/09 04:37:51;;;;;;;54.85;24.75;;;;;;;0.17;94.69;100852.84;5054774;28;20106;-75
2021/01/09 04:40:17;;;;;;;59.03;27.20;;;;;;;0.15;94.34;100846.72;5053395;28;20049;-77
2021/01/09 04:42:44;;;;;;;55.20;26.52;;;;;;;0.24;94.28;100851.91;5054475;28;20082;-77
2021/01/09 04:45:11;;;;;;;51.35;26.52;;;;;;;0.17;94.51;100840.59;5054627;28;20048;-77
2021/01/09 04:47:39;;;;;;;54.67;27.08;;;;;;;0.19;94.28;100853.69;5054512;28;20068;-77
2021/01/09 04:50:06;;;;;;;55.65;27.80;;;;;;;0.08;94.45;100840.63;5053299;28;20053;-78
2021/01/09 04:52:34;;;;;;;54.40;26.50;;;;;;;0.16;95.15;100848.47;5053449;28;20126;-77
2021/01/09 04:55:01;;;;;;;57.80;26.92;;;;;;;0.16;94.71;100848.47;5054069;28;20049;-77
2021/01/09 04:57:31;;;;;;;53.25;27.10;;;;;;;0.18;94.71;100860.69;5053720;28;20053;-78
2021/01/09 04:59:58;;;;;;;53.03;27.05;;;;;;;0.30;94.66;100871.97;5055800;28;20087;-77
2021/01/09 05:02:26;;;;;;;52.63;26.00;;;;;;;0.34;94.55;100873.72;5057141;28;20053;-79
2021/01/09 05:04:52;;;;;;;57.03;27.02;;;;;;;0.24;94.57;100870.28;5057027;28;20057;-76
2021/01/09 05:07:18;;;;;;;50.15;24.85;;;;;;;0.09;94.72;100858.13;5057855;28;20061;-78
2021/01/09 05:09:44;;;;;;;49.92;25.25;;;;;;;0.33;94.67;100879.84;5058003;28;20103;-78
2021/01/09 05:12:11;;;;;;;52.80;25.63;;;;;;;0.34;94.66;100881.59;5057538;28;20049;-76
2021/01/09 05:14:38;;;;;;;58.55;26.08;;;;;;;0.31;94.75;100878.97;5057976;28;20053;-78
2021/01/09 05:17:04;;;;;;;51.15;25.52;;;;;;;0.28;94.75;100882.53;5057639;28;20068;-77
2021/01/09 05:19:30;;;;;;;50.97;25.70;;;;;;;0.32;94.78;100876.34;5056520;28;20079;-78
2021/01/09 05:21:58;;;;;;;49.00;25.45;;;;;;;0.33;94.51;100872.84;5057723;28;20052;-78
2021/01/09 05:24:25;;;;;;;54.15;25.90;;;;;;;0.34;94.64;100879.84;5057586;28;20061;-77
2021/01/09 05:26:53;;;;;;;51.78;25.60;;;;;;;0.31;94.82;100884.22;5056388;28;20454;-76
2021/01/09 05:29:20;;;;;;;50.60;25.42;;;;;;;0.34;94.81;100874.59;5057062;28;20049;-77
2021/01/09 05:31:47;;;;;;;49.92;27.60;;;;;;;0.36;94.92;100887.69;5057226;28;20160;-76
2021/01/09 05:34:14;;;;;;;52.63;27.25;;;;;;;0.35;94.88;100884.22;5057619;28;20060;-75
2021/01/09 05:36:40;;;;;;;49.80;25.27;;;;;;;0.37;94.73;100887.69;5056379;28;20056;-77
2021/01/09 05:39:06;;;;;;;48.35;26.30;;;;;;;0.24;94.64;100876.41;5057363;28;20060;-75
2021/01/09 05:41:33;;;;;;;51.85;25.80;;;;;;;0.31;94.72;100884.22;5057515;28;20056;-76
2021/01/09 05:44:05;;;;;;;54.92;27.15;;;;;;;0.39;94.80;100887.69;5057108;28;20095;-78
2021/01/09 05:46:33;;;;;;;49.40;25.42;;;;;;;0.18;94.47;100855.47;5057092;28;20102;-76
2021/01/09 05:49:00;;;;;;;53.25;25.95;;;;;;;0.37;94.26;100885.06;5057234;28;20131;-77
2021/01/09 05:51:34;;;;;;;53.35;27.33;;;;;;;0.40;94.20;100899.94;5057240;28;20119;-75
2021/01/09 05:54:01;;;;;;;55.15;26.90;;;;;;;0.37;94.16;100890.31;5056191;28;20068;-76
2021/01/09 05:56:28;;;;;;;51.75;27.45;;;;;;;0.40;94.53;100890.28;5056992;28;20453;-77
2021/01/09 05:58:55;;;;;;;58.83;28.40;;;;;;;0.44;94.35;100896.38;5056653;28;20359;-78
2021/01/09 06:01:29;;;;;;;57.88;27.05;;;;;;;0.42;94.43;100905.19;5057057;28;20056;-77
2021/01/09 06:04:19;;;;;;;60.47;27.63;;;;;;;0.41;93.97;100893.81;5057152;28;20053;-76
2021/01/09 06:06:56;;;;;;;58.88;27.25;;;;;;;0.33;94.35;100906.13;5056961;28;20492;-77
2021/01/09 06:09:34;;;;;;;55.35;27.50;;;;;;;0.38;94.40;100905.19;5056766;28;20122;-75
2021/01/09 06:12:05;;;;;;;54.13;27.10;;;;;;;0.39;94.56;100913.97;5055507;28;20460;-77
2021/01/09 06:14:35;;;;;;;67.20;28.05;;;;;;;0.43;94.86;100912.19;5056634;28;20431;-77
2021/01/09 06:17:03;;;;;;;62.15;27.48;;;;;;;0.34;94.63;100898.25;5056800;28;20079;-77
2021/01/09 06:19:31;;;;;;;55.95;26.75;;;;;;;0.37;94.02;100899.94;5056489;28;20053;-77
2021/01/09 06:21:59;;;;;;;58.13;26.92;;;;;;;0.31;94.34;100900.88;5056667;28;20075;-77
2021/01/09 06:24:25;;;;;;;54.38;26.17;;;;;;;0.38;95.03;100910.44;5056616;28;20351;-77
2021/01/09 06:26:53;;;;;;;59.05;27.33;;;;;;;0.38;94.86;100918.31;5056627;28;20049;-76
2021/01/09 06:29:25;;;;;;;53.83;26.73;;;;;;;0.39;94.86;100913.97;5056505;28;20102;-76
2021/01/09 06:32:04;;;;;;;52.47;25.15;;;;;;;0.41;94.90;100914.81;5056240;28;20389;-76
2021/01/09 06:34:32;;;;;;;55.60;27.13;;;;;;;0.44;94.30;100920.03;5055414;28;20091;-76
2021/01/09 06:37:01;;;;;;;56.33;26.40;;;;;;;0.36;94.73;100909.59;5056423;28;20163;-76
2021/01/09 06:39:36;;;;;;;57.28;26.77;;;;;;;0.42;94.92;100913.91;5055166;28;20052;-78
2021/01/09 06:42:08;;;;;;;53.97;26.63;;;;;;;0.37;94.57;100908.72;5056186;28;20446;-77
2021/01/09 06:44:35;;;;;;;51.90;25.08;;;;;;;0.35;94.54;100920.09;5056200;28;20048;-77
2021/01/09 06:47:02;;;;;;;52.00;25.55;;;;;;;0.42;94.14;100924.44;5055291;28;20049;-77
2021/01/09 06:49:29;;;;;;;50.08;25.40;;;;;;;0.38;94.68;100926.19;5056036;28;20055;-76
2021/01/09 06:52:01;;;;;;;55.53;25.42;;;;;;;0.21;94.67;100905.31;5055975;28;20114;-77
2021/01/09 06:54:44;;;;;;;51.47;24.67;;;;;;;0.31;94.49;100921.88;5055854;28;20135;-78
2021/01/09 06:57:15;;;;;;;47.90;24.23;;;;;;;0.33;94.51;100927.13;5056337;28;20095;-74
2021/01/09 06:59:43;;;;;;;49.08;24.55;;;;;;;0.43;94.45;100936.66;5054929;28;20052;-76
2021/01/09 07:02:22;;;;;;;45.88;25.00;;;;;;;0.46;94.64;100936.66;5055778;28;20053;-78
2021/01/09 07:05:19;;;;;;;47.15;24.85;;;;;;;0.31;94.67;100906.13;5055627;28;20048;-76
2021/01/09 07:07:53;;;;;;;50.20;25.73;;;;;;;0.48;94.46;100947.19;5054876;28;20057;-76
2021/01/09 07:10:26;;;;;;;46.33;24.05;;;;;;;0.44;94.28;100943.66;5055721;28;20053;-75
2021/01/09 07:13:14;;;;;;;49.75;23.05;;;;;;;0.46;94.45;100946.28;5055548;28;20056;-76
2021/01/09 07:15:40;;;;;;;46.30;23.38;;;;;;;0.48;94.47;100947.19;5055599;28;20048;-78
2021/01/09 07:18:09;;;;;;;45.90;24.00;;;;;;;0.46;94.33;100959.44;5054862;28;20464;-76
2021/01/09 07:20:38;;;;;;;41.20;22.27;;;;;;;0.42;94.39;100949.84;5052219;28;20426;-77
2021/01/09 07:23:09;;;;;;;45.00;23.70;;;;;;;0.40;94.32;100958.56;5055207;28;20049;-78
2021/01/09 07:25:39;;;;;;;50.85;24.58;;;;;;;0.30;94.56;100945.50;5052210;28;20045;-76
2021/01/09 07:28:27;;;;;;;47.85;22.52;;;;;;;0.41;94.79;100964.72;5055235;28;20048;-76
2021/01/09 07:31:03;;;;;;;45.22;22.15;;;;;;;0.39;94.38;100967.34;5054360;28;20056;-78
2021/01/09 07:33:31;;;;;;;43.58;21.98;;;;;;;0.41;94.67;100962.09;5053721;28;20045;-75
2021/01/09 07:36:00;;;;;;;48.00;22.45;;;;;;;0.40;94.62;100968.22;5052712;28;20068;-76
2021/01/09 07:38:27;;;;;;;45.75;22.52;;;;;;;0.40;94.95;100966.44;5055148;28;20124;-75
2021/01/09 07:40:56;;;;;;;48.50;23.35;;;;;;;0.47;94.62;100979.56;5054895;28;20044;-75
2021/01/09 07:43:42;;;;;;;48.22;23.35;;;;;;;0.26;94.33;100952.53;5054538;28;20389;-74
2021/01/09 07:46:26;;;;;;;45.45;22.92;;;;;;;0.50;94.62;100982.19;5053601;28;20053;-77
2021/01/09 07:48:55;;;;;;;47.85;23.58;;;;;;;0.47;94.88;100972.56;5054199;28;20131;-77
2021/01/09 07:51:53;;;;;;;45.22;22.23;;;;;;;0.40;94.16;100979.59;5053900;28;20040;-76
2021/01/09 07:54:44;;;;;;;44.17;23.30;;;;;;;0.40;94.21;100974.31;5054019;28;20045;-76
2021/01/09 07:57:21;;;;;;;45.42;22.63;;;;;;;0.47;94.44;100990.06;5055240;28;20136;-74
2021/01/09 07:59:53;;;;;;;43.70;21.55;;;;;;;0.47;93.85;100996.19;5056963;28;20056;-76
2021/01/09 08:02:27;;;;;;;46.88;22.48;;;;;;;0.40;93.80;100991.84;5052037;28;20374;-74
2021/01/09 08:05:13;;;;;;;41.63;20.85;;;;;;;0.46;94.37;101001.44;5055548;28;20045;-78
2021/01/09 08:07:46;;;;;;;48.72;23.40;;;;;;;0.44;94.38;101001.44;5054974;28;20385;-75
2021/01/09 08:10:16;;;;;;;48.67;21.95;;;;;;;0.48;93.55;101003.19;5053181;28;20443;-76
2021/01/09 08:12:42;;;;;;;51.28;23.40;;;;;;;0.46;93.72;101004.97;5051355;28;20045;-74
2021/01/09 08:15:10;;;;;;;42.33;22.13;;;;;;;0.38;93.83;100996.25;5056823;28;20062;-75
2021/01/09 08:17:37;;;;;;;44.70;22.05;;;;;;;0.46;94.03;101004.97;5050543;28;20056;-75
2021/01/09 08:20:10;;;;;;;41.35;20.10;;;;;;;0.44;93.56;101011.09;5054189;28;20338;-75
2021/01/09 08:23:00;;;;;;;45.17;21.88;;;;;;;0.36;93.87;101006.75;5036587;28;20048;-77
2021/01/09 08:25:32;;;;;;;43.80;19.50;;;;;;;0.51;93.91;101011.06;5046969;28;20056;-75
2021/01/09 08:28:01;;;;;;;44.17;21.08;;;;;;;0.47;93.62;101006.69;5052446;28;20127;-78
2021/01/09 08:30:32;;;;;;;43.03;20.35;;;;;;;0.52;93.89;101011.91;5059474;28;20060;-76
2021/01/09 08:33:08;;;;;;;47.53;20.75;;;;;;;0.42;94.27;101018.97;5057865;28;20053;-75
2021/01/09 08:35:39;;;;;;;38.78;20.17;;;;;;;0.47;94.28;101017.22;5057663;28;20049;-77
2021/01/09 08:38:07;;;;;;;41.38;21.15;;;;;;;0.39;94.34;100990.97;5066179;28;20057;-78
2021/01/09 08:40:33;;;;;;;40.53;20.85;;;;;;;0.61;94.49;101025.00;5069077;28;20342;-75
2021/01/09 08:43:23;;;;;;;45.70;20.75;;;;;;;0.62;93.92;101015.38;5062270;28;20736;-80
2021/01/09 08:45:54;;;;;;;39.42;20.30;;;;;;;0.67;93.56;101024.09;5059686;28;20049;-77
2021/01/09 08:48:34;;;;;;;48.08;21.73;;;;;;;0.72;93.92;101027.59;5039498;28;20186;-80
2021/01/09 08:51:12;;;;;;;48.72;22.38;;;;;;;0.66;93.62;101028.47;5056782;28;20092;-79
2021/01/09 08:53:54;;;;;;;;;;;;;;;0.64;94.02;101035.50;5052908;28;20048;-75
2021/01/09 08:56:22;;;;;;;42.00;20.67;;;;;;;0.67;94.23;101040.72;5055529;28;19974;-77
2021/01/09 08:58:49;;;;;;;59.22;21.35;;;;;;;0.64;94.19;101035.50;5057557;28;20045;-71
2021/01/09 09:01:21;;;;;;;53.20;21.52;;;;;;;0.55;93.98;101022.44;5056515;28;20076;-75
2021/01/09 09:03:48;;;;;;;65.20;23.98;;;;;;;0.64;93.88;101040.75;5057561;28;20044;-75
2021/01/09 09:06:20;;;;;;;64.05;22.83;;;;;;;0.74;93.99;101051.19;5057670;28;20094;-77
2021/01/09 09:08:47;;;;;;;50.35;21.55;;;;;;;0.71;94.28;101043.34;5059046;28;20080;-78
2021/01/09 09:11:16;;;;;;;45.33;20.05;;;;;;;0.70;94.22;101044.25;5056488;28;20049;-78
2021/01/09 09:13:43;;;;;;;62.95;20.52;;;;;;;0.80;94.22;101049.44;5055220;28;20049;-75
2021/01/09 09:16:16;;;;;;;39.67;18.42;;;;;;;0.77;93.94;101052.06;5059217;28;20063;-79
2021/01/09 09:18:43;;;;;;;45.05;20.67;;;;;;;0.69;94.49;101045.13;5054910;28;20095;-81
2021/01/09 09:21:09;;;;;;;57.78;20.73;;;;;;;0.63;93.94;101044.28;5056397;28;20430;-81
2021/01/09 09:23:36;;;;;;;51.55;20.08;;;;;;;0.74;93.99;101056.47;5057803;28;20407;-80
2021/01/09 09:26:03;;;;;;;48.45;20.55;;;;;;;0.70;94.57;101052.97;5069624;28;20058;-74
2021/01/09 09:28:29;;;;;;;44.72;19.77;;;;;;;0.77;94.15;101065.19;5060199;28;20053;-76
2021/01/09 09:30:55;;;;;;;66.90;21.88;;;;;;;0.74;93.98;101065.22;5039309;28;20057;-75
2021/01/09 09:33:24;;;;;;;80.18;22.88;;;;;;;0.75;93.84;101064.34;5054050;28;20082;-78
2021/01/09 09:35:50;;;;;;;60.30;21.77;;;;;;;0.76;93.85;101066.09;5057004;28;20053;-78
2021/01/09 09:38:25;;;;;;;66.72;21.48;;;;;;;0.78;93.85;101074.84;5056641;28;20052;-78
2021/01/09 09:41:03;;;;;;;54.13;21.15;;;;;;;0.69;93.75;101059.13;5056083;28;20370;-75
2021/01/09 09:43:29;;;;;;;47.08;21.05;;;;;;;0.79;94.30;101076.59;5055160;28;20056;-78
2021/01/09 09:45:56;;;;;;;55.03;23.45;;;;;;;0.86;94.31;101077.41;5057057;28;20048;-76
2021/01/09 09:48:29;;;;;;;63.90;22.85;;;;;;;0.83;94.15;101076.56;5054240;28;20099;-75
2021/01/09 09:51:09;;;;;;;54.60;23.67;;;;;;;0.81;94.45;101074.81;5056682;28;20048;-84
2021/01/09 09:53:38;;;;;;;51.22;21.58;;;;;;;0.98;93.94;101088.75;5056665;28;20320;-77
2021/01/09 09:56:24;;;;;;;54.15;22.35;;;;;;;0.85;93.96;101080.94;5054365;28;20053;-78
2021/01/09 09:59:02;;;;;;;64.20;22.10;;;;;;;0.86;94.28;101090.56;5054816;28;20056;-77
2021/01/09 10:01:29;;;;;;;57.85;21.58;;;;;;;0.86;94.07;101092.34;5054529;28;20512;-76
2021/01/09 10:03:56;;;;;;;56.63;20.95;;;;;;;0.84;94.28;101094.97;5056541;28;20057;-77
2021/01/09 10:06:33;;;;;;;54.65;21.90;;;;;;;0.81;94.09;101084.44;5056480;28;20123;-77
2021/01/09 10:09:19;;;;;;;79.18;20.85;;;;;;;0.80;94.08;101098.47;5056496;28;20052;-76
2021/01/09 10:11:47;;;;;;;45.30;19.25;;;;;;;0.79;93.59;101099.38;5052869;28;20047;-77
2021/01/09 10:14:20;;;;;;;58.00;21.10;;;;;;;0.74;94.54;101099.38;5056249;28;20092;-79
2021/01/09 10:16:47;;;;;;;105.80;20.35;;;;;;;0.77;94.21;101098.50;5056254;28;20139;-76
2021/01/09 10:19:16;;;;;;;82.10;22.27;;;;;;;0.71;94.35;101093.28;5055930;28;20048;-79
2021/01/09 10:21:43;;;;;;;90.88;20.92;;;;;;;0.78;93.89;101095.00;5056029;28;20523;-78
2021/01/09 10:24:10;;;;;;;78.18;21.98;;;;;;;0.77;94.59;101103.75;5054673;28;20049;-76
2021/01/09 10:26:38;;;;;;;73.10;22.50;;;;;;;0.81;95.20;101097.59;5054545;28;20049;-78
2021/01/09 10:29:05;;;;;;;80.07;22.27;;;;;;;0.80;94.49;101091.47;5055619;28;20049;-77
2021/01/09 10:31:39;;;;;;;65.25;20.52;;;;;;;0.85;94.58;101098.44;5055677;28;20490;-79
2021/01/09 10:34:07;;;;;;;59.17;17.25;;;;;;;0.98;93.80;101094.00;5055837;28;20095;-80
2021/01/09 10:36:35;;;;;;;76.50;20.17;;;;;;;0.87;94.11;101089.66;5055621;28;20434;-79
2021/01/09 10:39:03;;;;;;;81.13;19.80;;;;;;;0.90;93.85;101092.31;5053868;28;20045;-76
2021/01/09 10:41:29;;;;;;;54.72;20.77;;;;;;;0.98;93.93;101097.50;5065823;28;20373;-76
2021/01/09 10:44:01;;;;;;;68.47;20.20;;;;;;;0.94;93.95;101087.91;5055585;28;20052;-76
2021/01/09 10:46:28;;;;;;;71.07;20.65;;;;;;;0.76;93.82;101073.13;5051878;28;20055;-78
2021/01/09 10:48:56;;;;;;;90.50;22.42;;;;;;;0.78;93.75;101089.72;5055399;28;20044;-78
2021/01/09 10:51:24;;;;;;;58.55;18.55;;;;;;;0.74;93.46;101098.50;5057486;28;20055;-78
2021/01/09 10:53:50;;;;;;;70.20;19.08;;;;;;;0.62;93.61;101099.44;5052074;28;20068;-77
2021/01/09 10:56:18;;;;;;;54.97;19.90;;;;;;;0.45;95.10;101084.66;5053884;28;20063;-77
2021/01/09 10:58:44;;;;;;;42.55;18.45;;;;;;;0.62;94.77;101087.19;5057499;28;20064;-76
2021/01/09 11:01:10;;;;;;;50.67;17.38;;;;;;;0.72;94.67;101082.78;5053123;28;20095;-77
2021/01/09 11:03:41;;;;;;;64.57;18.73;;;;;;;0.67;94.66;101088.03;5053547;28;20088;-78
2021/01/09 11:06:09;;;;;;;74.50;17.08;;;;;;;0.52;93.74;101075.84;5055743;28;20099;-77
2021/01/09 11:08:35;;;;;;;64.18;17.60;;;;;;;0.58;95.11;101095.06;5052245;28;20052;-77
2021/01/09 11:11:01;;;;;;;45.83;16.02;;;;;;;0.58;94.21;101093.34;5054873;28;20048;-74
2021/01/09 11:13:28;;;;;;;35.30;17.73;;;;;;;0.62;94.34;101079.31;5054191;28;20442;-75
2021/01/09 11:15:54;;;;;;;34.97;17.17;;;;;;;0.66;94.58;101074.91;5055104;28;20052;-75
2021/01/09 11:18:21;;;;;;;37.05;14.65;;;;;;;0.69;93.73;101079.28;5062872;28;20040;-77
2021/01/09 11:20:50;;;;;;;53.17;18.00;;;;;;;0.54;95.14;101057.44;5066104;28;20045;-77
2021/01/09 11:23:18;;;;;;;44.08;16.08;;;;;;;0.63;94.40;101049.53;5055256;28;20044;-72